Time;durP1;ratioP1;P1;durP2;ratioP2;P2;SDS_P1;SDS_P2;PMS_P1;PMS_P2;Temp;Humidity;BMP_temperature;BMP_pressure;BME280_temperature;BME280_humidity;BME280_pressure;Samples;Min_cycle;Max_cycle;Signal;HPM_P1;HPM_P2
2022/12/14 00:01:44;;;;;;;70.40;30.90;;;;;;;-3.25;73.53;99861.79;126483;1285;108059;-77
2022/12/14 00:04:46;;;;;;;78.10;34.10;;;;;;;-3.33;73.43;99864.25;126265;1279;100517;-77
2022/12/14 00:07:49;;;;;;;71.50;30.60;;;;;;;-3.42;73.18;99859.30;126217;1300;99707;-75
2022/12/14 00:10:51;;;;;;;69.00;29.80;;;;;;;-3.58;72.91;99854.48;126210;1300;99804;-74
2022/12/14 00:13:55;;;;;;;65.70;31.00;;;;;;;-3.83;73.16;99854.61;126232;1300;99761;-75
2022/12/14 00:16:58;;;;;;;69.90;29.50;;;;;;;-3.98;73.06;99860.00;126314;1284;99372;-78
2022/12/14 00:20:01;;;;;;;67.80;29.20;;;;;;;-4.06;73.02;99860.55;126290;1283;99440;-79
2022/12/14 00:23:03;;;;;;;60.70;27.70;;;;;;;-4.18;72.54;99861.98;126269;1293;99633;-77
2022/12/14 00:26:12;;;;;;;63.30;29.10;;;;;;;-4.44;72.36;99865.17;126269;1284;100654;-80
2022/12/14 00:29:14;;;;;;;65.30;27.30;;;;;;;-4.54;72.49;99873.81;126244;1284;108665;-81
2022/12/14 00:32:17;;;;;;;77.20;31.40;;;;;;;-4.63;72.63;99877.13;126297;1291;99401;-80
2022/12/14 00:35:19;;;;;;;79.70;32.10;;;;;;;-4.72;72.08;99882.38;126359;1284;100521;-79
2022/12/14 00:38:22;;;;;;;79.60;30.00;;;;;;;-4.86;72.14;99878.65;126378;1291;99961;-79
2022/12/14 00:41:24;;;;;;;62.50;27.90;;;;;;;-4.95;71.94;99883.19;126353;1289;99429;-79
2022/12/14 00:44:27;;;;;;;60.40;26.10;;;;;;;-5.01;71.86;99881.88;126364;1277;99802;-78
2022/12/14 00:47:30;;;;;;;59.90;25.50;;;;;;;-5.11;71.71;99880.71;126356;1287;99438;-79
2022/12/14 00:50:33;;;;;;;61.40;24.80;;;;;;;-5.20;71.71;99878.66;126305;1286;100493;-79
2022/12/14 00:53:35;;;;;;;60.80;26.20;;;;;;;-5.29;71.57;99880.39;126251;1287;99371;-79
2022/12/14 00:56:38;;;;;;;66.30;27.00;;;;;;;-5.35;71.39;99878.74;126280;1283;99373;-80
2022/12/14 00:59:40;;;;;;;85.70;31.80;;;;;;;-5.43;71.04;99877.17;126319;1292;100522;-81
2022/12/14 01:02:43;;;;;;;72.80;28.70;;;;;;;-5.59;71.16;99875.36;126318;1292;99393;-80
2022/12/14 01:05:46;;;;;;;63.40;25.60;;;;;;;-5.66;71.19;99876.83;126547;1287;99924;-81
2022/12/14 01:08:49;;;;;;;66.80;26.70;;;;;;;-5.74;70.88;99878.02;126423;1286;100524;-77
2022/12/14 01:11:52;;;;;;;64.00;26.40;;;;;;;-5.80;70.79;99876.01;126272;1284;99443;-77
2022/12/14 01:14:54;;;;;;;57.60;24.50;;;;;;;-5.85;70.65;99873.79;126364;1290;99760;-77
2022/12/14 01:17:57;;;;;;;61.20;25.30;;;;;;;-5.92;70.54;99866.77;126350;1287;99871;-82
2022/12/14 01:21:11;;;;;;;54.20;25.00;;;;;;;-5.99;70.64;99864.96;126336;1286;99357;-81
2022/12/14 01:24:14;;;;;;;79.00;27.80;;;;;;;-6.05;70.47;99864.69;125542;1301;1173934;-80
2022/12/14 01:27:16;;;;;;;65.50;26.20;;;;;;;-6.11;70.39;99862.48;126351;1300;99694;-81
2022/12/14 01:30:19;;;;;;;70.70;27.20;;;;;;;-6.16;70.02;99862.14;126297;1285;99346;-81
2022/12/14 01:33:22;;;;;;;60.30;24.80;;;;;;;-6.20;70.21;99854.85;126365;1287;100724;-81
2022/12/14 01:36:26;;;;;;;63.90;25.70;;;;;;;-6.27;70.27;99857.01;126290;1285;100515;-83
2022/12/14 01:39:29;;;;;;;62.00;25.30;;;;;;;-6.35;69.91;99861.09;126285;1286;100509;-82
2022/12/14 01:42:35;;;;;;;68.40;26.50;;;;;;;-6.42;69.85;99863.45;126279;1285;99372;-80
2022/12/14 01:45:37;;;;;;;59.50;23.40;;;;;;;-6.47;69.89;99859.66;126218;1285;99419;-77
2022/12/14 01:48:40;;;;;;;65.10;25.80;;;;;;;-6.50;69.76;99853.88;126363;1284;100624;-79
2022/12/14 01:51:47;;;;;;;63.20;24.40;;;;;;;-6.56;69.89;99856.15;126448;1283;99865;-76
2022/12/14 01:54:55;;;;;;;61.30;25.40;;;;;;;-6.61;69.74;99848.38;126474;1284;101511;-77
2022/12/14 01:58:04;;;;;;;67.00;26.00;;;;;;;-6.62;69.94;99855.02;126262;1277;100553;-78
2022/12/14 02:01:06;;;;;;;67.30;26.80;;;;;;;-6.69;69.64;99851.95;126449;1293;100518;-79
2022/12/14 02:04:13;;;;;;;71.80;28.70;;;;;;;-6.78;69.38;99854.67;126342;1287;99358;-79
2022/12/14 02:07:16;;;;;;;72.00;27.10;;;;;;;-6.82;69.64;99853.80;126361;1277;99753;-79
2022/12/14 02:10:22;;;;;;;60.60;24.50;;;;;;;-6.83;69.37;99854.67;126330;1285;99365;-81
2022/12/14 02:13:27;;;;;;;54.40;23.30;;;;;;;-6.81;69.69;99855.83;126202;1290;100551;-82
2022/12/14 02:16:30;;;;;;;53.20;21.70;;;;;;;-6.75;69.53;99854.21;126417;1301;100525;-81
2022/12/14 02:19:33;;;;;;;54.50;21.40;;;;;;;-6.66;69.71;99850.80;126410;1277;99878;-78
2022/12/14 02:23:22;;;;;;;54.10;22.40;;;;;;;-6.58;69.33;99845.00;126590;1292;100426;-77
2022/12/14 02:27:04;;;;;;;64.90;23.70;;;;;;;-6.48;68.92;99849.15;125797;1298;99434;-78
2022/12/14 02:30:10;;;;;;;68.10;27.00;;;;;;;-6.44;68.62;99851.05;126497;1277;100418;-79
2022/12/14 02:33:32;;;;;;;62.80;24.40;;;;;;;-6.43;68.54;99853.11;126500;1287;99330;-79
2022/12/14 02:36:42;;;;;;;62.00;23.30;;;;;;;-6.46;68.76;99856.34;126504;1285;99314;-77
2022/12/14 02:39:54;;;;;;;56.90;23.80;;;;;;;-6.47;68.22;99856.38;126330;1285;99357;-77
2022/12/14 02:43:06;;;;;;;;;;;;;;;-6.44;68.82;99856.58;126550;1294;99348;-78
2022/12/14 02:46:20;;;;;;;57.20;21.80;;;;;;;-6.38;68.82;99853.45;126581;1283;99453;-77
2022/12/14 02:49:37;;;;;;;56.30;23.20;;;;;;;-6.37;68.34;99857.73;126518;1287;99761;-75
2022/12/14 02:52:46;;;;;;;60.90;24.10;;;;;;;-6.39;68.68;99855.04;126211;1292;100491;-76
2022/12/14 02:55:52;;;;;;;58.40;23.70;;;;;;;-6.37;69.20;99853.56;126350;1290;99335;-76
2022/12/14 02:58:56;;;;;;;59.80;23.40;;;;;;;-6.33;69.32;99850.15;126314;1301;99469;-77
2022/12/14 03:02:02;;;;;;;63.20;24.20;;;;;;;-6.29;69.69;99848.09;126399;1284;99466;-75
2022/12/14 03:05:05;;;;;;;60.50;23.10;;;;;;;-6.25;69.74;99844.83;126476;1286;99397;-76
2022/12/14 03:08:11;;;;;;;58.20;24.50;;;;;;;-6.17;69.59;99842.98;126468;1290;100596;-75
2022/12/14 03:11:20;;;;;;;62.00;24.10;;;;;;;-6.09;70.27;99850.28;126504;1292;100501;-75
2022/12/14 03:14:26;;;;;;;61.10;24.10;;;;;;;-6.02;70.23;99849.49;126608;1291;99340;-75
2022/12/14 03:17:32;;;;;;;61.40;23.50;;;;;;;-5.94;70.74;99849.52;126424;1294;99335;-74
2022/12/14 03:20:38;;;;;;;60.10;25.10;;;;;;;-5.85;71.10;99849.02;126291;1293;99454;-76
2022/12/14 03:23:45;;;;;;;57.60;23.50;;;;;;;-5.77;71.80;99848.86;126311;1287;100520;-75
2022/12/14 03:26:53;;;;;;;55.30;22.30;;;;;;;-5.73;72.09;99848.33;126262;1277;99310;-75
2022/12/14 03:30:01;;;;;;;50.80;21.10;;;;;;;-5.65;72.60;99848.73;126281;1293;100461;-76
2022/12/14 03:33:09;;;;;;;48.90;21.20;;;;;;;-5.57;72.88;99848.58;126486;1285;99341;-77
2022/12/14 03:36:19;;;;;;;52.10;21.50;;;;;;;-5.47;72.87;99851.34;126465;1292;99334;-74
2022/12/14 03:39:26;;;;;;;55.20;22.00;;;;;;;-5.40;72.81;99857.11;126244;1284;99366;-74
2022/12/14 03:42:34;;;;;;;54.30;21.70;;;;;;;-5.35;72.87;99857.58;126345;1294;99402;-75
2022/12/14 03:45:46;;;;;;;45.60;19.70;;;;;;;-5.30;73.14;99858.62;126227;1293;99334;-77
2022/12/14 03:48:54;;;;;;;47.70;21.30;;;;;;;-5.22;73.26;99855.99;126317;1294;99371;-75
2022/12/14 03:52:02;;;;;;;47.10;20.70;;;;;;;-5.12;73.43;99849.52;126671;1301;99437;-80
2022/12/14 03:55:17;;;;;;;41.70;18.20;;;;;;;-4.96;73.41;99846.63;126492;1293;99377;-80
2022/12/14 03:58:33;;;;;;;37.60;15.90;;;;;;;-4.80;73.24;99849.38;126482;1287;99437;-79
2022/12/14 04:01:41;;;;;;;39.60;17.00;;;;;;;-4.64;73.35;99849.93;126607;1286;99457;-79
2022/12/14 04:04:53;;;;;;;40.60;17.00;;;;;;;-4.55;73.10;99853.36;126538;1285;99749;-80
2022/12/14 04:08:03;;;;;;;41.20;17.30;;;;;;;-4.48;72.97;99854.11;126282;1277;99341;-79
2022/12/14 04:21:27;;;;;;;42.10;18.50;;;;;;;-4.36;73.40;99845.41;126358;1293;100547;-79
2022/12/14 04:28:02;;;;;;;44.00;19.60;;;;;;;-4.36;73.35;99845.58;126277;1285;99438;-80
2022/12/14 04:31:09;;;;;;;48.00;19.70;;;;;;;-4.38;73.35;99844.27;126339;1290;99344;-80
2022/12/14 04:34:15;;;;;;;62.50;25.50;;;;;;;-4.40;73.26;99843.83;126374;1284;100573;-80
2022/12/14 04:37:21;;;;;;;60.80;24.90;;;;;;;-4.43;73.41;99839.09;126527;1284;99392;-79
2022/12/14 04:40:29;;;;;;;44.80;20.20;;;;;;;-4.46;73.38;99840.27;126347;1284;99354;-79
2022/12/14 04:43:38;;;;;;;47.10;19.90;;;;;;;-4.54;73.39;99840.80;126344;1277;100491;-80
2022/12/14 04:46:42;;;;;;;60.50;25.90;;;;;;;-4.63;73.29;99839.83;126254;1284;99411;-79
2022/12/14 04:49:50;;;;;;;42.60;18.70;;;;;;;-4.72;73.37;99841.74;126301;1277;99340;-78
2022/12/14 04:53:00;;;;;;;33.90;14.80;;;;;;;-4.79;73.36;99840.54;126247;1277;99335;-80
2022/12/14 04:56:09;;;;;;;31.70;14.20;;;;;;;-4.81;73.27;99840.42;126254;1284;99341;-77
2022/12/14 04:59:12;;;;;;;40.50;18.20;;;;;;;-4.84;73.22;99838.12;126308;1287;99410;-79
2022/12/14 05:02:25;;;;;;;39.50;18.60;;;;;;;-4.90;73.36;99839.08;126247;1277;100436;-80
2022/12/14 05:05:35;;;;;;;37.30;17.30;;;;;;;-4.90;73.28;99836.33;126308;1292;99426;-80
2022/12/14 05:09:00;;;;;;;38.60;17.80;;;;;;;-4.90;73.22;99829.71;126349;1289;99323;-80
2022/12/14 05:12:07;;;;;;;48.90;20.80;;;;;;;-4.88;73.43;99833.27;126283;1293;100492;-79
2022/12/14 05:15:15;;;;;;;47.90;21.40;;;;;;;-4.83;73.40;99830.12;126297;1292;99377;-80
2022/12/14 05:18:18;;;;;;;44.70;19.70;;;;;;;-4.75;73.55;99832.90;126318;1277;100505;-80
2022/12/14 05:24:42;;;;;;;51.50;22.60;;;;;;;-4.66;73.47;99828.00;126294;1292;100384;-80
2022/12/14 05:27:45;;;;;;;60.20;25.40;;;;;;;-4.61;73.50;99828.27;126355;1284;100545;-79
2022/12/14 05:30:47;;;;;;;53.20;22.90;;;;;;;-4.58;73.49;99829.55;126466;1277;100500;-78
2022/12/14 05:33:50;;;;;;;55.50;22.70;;;;;;;-4.60;73.44;99823.18;126294;1281;99388;-79
2022/12/14 05:36:53;;;;;;;59.10;22.30;;;;;;;-4.61;73.45;99824.83;126334;1291;99459;-79
2022/12/14 05:39:55;;;;;;;49.60;22.20;;;;;;;-4.64;73.27;99826.17;126395;1294;99327;-79
2022/12/14 05:43:04;;;;;;;56.90;23.10;;;;;;;-4.67;73.29;99827.14;126365;1290;99338;-80
2022/12/14 05:46:10;;;;;;;54.60;23.20;;;;;;;-4.67;73.43;99826.61;126252;1287;99392;-80
2022/12/14 05:49:12;;;;;;;60.00;24.10;;;;;;;-4.66;73.35;99824.50;126333;1286;99356;-79
2022/12/14 05:52:15;;;;;;;55.10;23.30;;;;;;;-4.65;73.55;99821.88;126302;1287;99756;-79
2022/12/14 05:55:18;;;;;;;60.80;23.60;;;;;;;-4.66;73.43;99823.48;126297;1285;100534;-80
2022/12/14 05:58:20;;;;;;;54.80;23.50;;;;;;;-4.67;73.29;99823.35;126362;1287;99436;-79
2022/12/14 06:01:23;;;;;;;52.50;23.80;;;;;;;-4.70;73.42;99818.80;126420;1290;99751;-78
2022/12/14 06:04:26;;;;;;;53.60;23.80;;;;;;;-4.76;73.42;99826.52;126428;1290;99864;-80
2022/12/14 06:07:28;;;;;;;50.60;21.20;;;;;;;-4.82;73.50;99826.39;126651;1282;100627;-74
2022/12/14 06:10:31;;;;;;;54.10;22.50;;;;;;;-4.85;73.41;99829.34;126461;1286;111298;-73
2022/12/14 06:13:33;;;;;;;44.40;20.00;;;;;;;-4.92;73.41;99829.61;126563;1285;99795;-73
2022/12/14 06:16:39;;;;;;;45.80;19.10;;;;;;;-5.00;73.50;99833.44;126715;1290;101403;-74
2022/12/14 06:19:42;;;;;;;90.90;32.80;;;;;;;-5.04;73.43;99830.48;126460;1301;112357;-73
2022/12/14 06:22:44;;;;;;;93.30;32.20;;;;;;;-5.06;73.47;99833.32;126319;1296;100922;-74
2022/12/14 06:25:53;;;;;;;69.20;25.50;;;;;;;-5.07;73.36;99832.01;126327;1284;99777;-75
2022/12/14 06:28:57;;;;;;;41.20;18.30;;;;;;;-5.11;73.48;99828.54;126524;1294;113590;-75
2022/12/14 06:32:01;;;;;;;38.20;16.50;;;;;;;-5.10;73.73;99830.05;126427;1289;112469;-76
2022/12/14 06:35:04;;;;;;;37.10;15.90;;;;;;;-5.06;73.51;99837.01;126524;1282;112661;-76
2022/12/14 06:38:07;;;;;;;42.40;17.40;;;;;;;-5.04;73.70;99835.52;126244;1277;112455;-75
2022/12/14 06:41:10;;;;;;;42.40;16.50;;;;;;;-4.96;73.74;99843.34;126343;1294;99333;-75
2022/12/14 06:44:14;;;;;;;36.60;15.70;;;;;;;-4.87;73.89;99840.17;126295;1289;99704;-75
2022/12/14 06:47:17;;;;;;;40.20;15.50;;;;;;;-4.76;73.78;99838.48;126272;1284;112644;-76
2022/12/14 06:50:19;;;;;;;39.20;16.80;;;;;;;-4.66;73.66;99832.16;126539;1285;112455;-75
2022/12/14 06:53:22;;;;;;;40.90;17.40;;;;;;;-4.63;73.68;99825.97;126351;1294;100508;-72
2022/12/14 06:56:26;;;;;;;44.80;17.80;;;;;;;-4.62;73.64;99826.77;126385;1293;99380;-74
2022/12/14 06:59:29;;;;;;;61.20;26.80;;;;;;;-4.61;73.50;99821.54;126283;1294;112638;-74
2022/12/14 07:02:32;;;;;;;49.90;23.60;;;;;;;-4.62;73.31;99821.76;126331;1277;99410;-74
2022/12/14 07:05:35;;;;;;;42.90;19.70;;;;;;;-4.65;73.31;99820.30;126375;1290;99845;-75
2022/12/14 07:08:38;;;;;;;51.00;21.90;;;;;;;-4.71;73.23;99822.47;126275;1292;99438;-74
2022/12/14 07:11:41;;;;;;;80.40;31.50;;;;;;;-4.76;73.19;99824.25;126371;1285;112542;-74
2022/12/14 07:14:44;;;;;;;56.30;23.10;;;;;;;-4.82;73.22;99825.54;126415;1287;99520;-73
2022/12/14 07:17:46;;;;;;;47.30;21.20;;;;;;;-4.88;73.38;99825.13;126322;1287;100516;-74
2022/12/14 07:20:56;;;;;;;56.30;22.90;;;;;;;-4.89;73.16;99822.91;126363;1284;99345;-74
2022/12/14 07:24:00;;;;;;;63.60;26.70;;;;;;;-4.94;73.01;99825.89;126380;1294;112525;-74
2022/12/14 07:27:02;;;;;;;69.80;28.10;;;;;;;-4.99;72.81;99832.67;126245;1290;112370;-74
2022/12/14 07:30:07;;;;;;;49.60;21.50;;;;;;;-5.04;72.90;99832.20;126471;1285;99716;-75
2022/12/14 07:33:10;;;;;;;50.10;23.30;;;;;;;-5.10;72.85;99835.41;126347;1292;111597;-74
2022/12/14 07:36:14;;;;;;;54.70;23.00;;;;;;;-5.15;72.91;99833.52;126263;1277;99872;-73
2022/12/14 07:39:18;;;;;;;62.80;26.30;;;;;;;-5.23;72.73;99829.35;126429;1290;112684;-74
2022/12/14 07:42:20;;;;;;;89.70;34.70;;;;;;;-5.26;72.92;99824.80;126295;1292;113888;-75
2022/12/14 07:45:24;;;;;;;53.50;24.50;;;;;;;-5.30;72.61;99823.25;126562;1281;100008;-74
2022/12/14 07:48:27;;;;;;;63.60;28.40;;;;;;;-5.33;72.77;99823.02;126442;1284;112563;-75
2022/12/14 07:51:32;;;;;;;62.60;27.90;;;;;;;-5.39;72.81;99827.09;126397;1284;99360;-74
2022/12/14 07:54:35;;;;;;;58.60;25.90;;;;;;;-5.42;72.84;99823.04;126411;1287;112538;-74
2022/12/14 07:57:38;;;;;;;53.80;25.90;;;;;;;-5.42;72.63;99826.65;126408;1292;101059;-74
2022/12/14 08:00:41;;;;;;;55.10;25.90;;;;;;;-5.41;72.75;99823.70;126478;1285;100195;-76
2022/12/14 08:03:46;;;;;;;59.50;26.50;;;;;;;-5.41;72.61;99826.32;126460;1293;99395;-75
2022/12/14 08:06:48;;;;;;;67.50;28.80;;;;;;;-5.43;72.71;99822.89;126340;1283;114760;-75
2022/12/14 08:09:51;;;;;;;67.60;29.40;;;;;;;-5.43;72.69;99821.50;126246;1284;99430;-75
2022/12/14 08:12:54;;;;;;;72.00;30.30;;;;;;;-5.42;72.69;99822.15;126335;1285;99449;-75
2022/12/14 08:16:00;;;;;;;74.70;31.10;;;;;;;-5.41;72.83;99821.94;126366;1285;99442;-75
2022/12/14 08:19:03;;;;;;;78.70;32.40;;;;;;;-5.40;72.62;99825.38;126506;1287;113754;-74
2022/12/14 08:22:06;;;;;;;85.50;34.30;;;;;;;-5.41;72.51;99825.77;126298;1288;112395;-75
2022/12/14 08:25:09;;;;;;;85.50;35.30;;;;;;;-5.43;72.62;99820.29;126454;1293;100510;-75
2022/12/14 08:28:12;;;;;;;85.70;36.60;;;;;;;-5.47;72.45;99816.12;126279;1284;112487;-73
2022/12/14 08:31:17;;;;;;;87.00;37.50;;;;;;;-5.46;72.46;99819.19;126420;1276;100497;-72
2022/12/14 08:34:21;;;;;;;90.20;36.30;;;;;;;-5.46;72.32;99819.21;126245;1295;112469;-72
2022/12/14 08:37:24;;;;;;;80.50;36.60;;;;;;;-5.54;72.34;99821.09;127481;1294;112492;-75
2022/12/14 08:40:26;;;;;;;136.90;42.90;;;;;;;-5.54;72.35;99814.86;127063;1284;99701;-72
2022/12/14 08:43:29;;;;;;;84.30;33.70;;;;;;;-5.56;72.27;99813.23;126391;1293;100323;-74
2022/12/14 08:46:34;;;;;;;83.00;31.60;;;;;;;-5.57;72.17;99812.38;126311;1281;99754;-74
2022/12/14 08:49:36;;;;;;;84.40;32.40;;;;;;;-5.56;72.20;99809.01;126406;1294;112396;-73
2022/12/14 08:52:39;;;;;;;75.10;31.60;;;;;;;-5.55;72.26;99807.98;126275;1279;99351;-72
2022/12/14 08:55:41;;;;;;;110.50;37.10;;;;;;;-5.58;72.20;99802.54;126290;1283;102661;-73
2022/12/14 08:58:44;;;;;;;135.70;49.00;;;;;;;-5.55;72.25;99799.80;126281;1294;99313;-72
2022/12/14 09:01:47;;;;;;;92.50;41.10;;;;;;;-5.51;72.04;99796.87;126279;1287;99345;-73
2022/12/14 09:04:50;;;;;;;81.30;36.80;;;;;;;-5.53;71.92;99792.27;126331;1281;99770;-72
2022/12/14 09:07:53;;;;;;;79.60;34.00;;;;;;;-5.53;72.02;99787.45;126361;1282;99504;-73
2022/12/14 09:10:55;;;;;;;88.70;39.30;;;;;;;-5.50;72.04;99785.77;126367;1291;99341;-73
2022/12/14 09:13:58;;;;;;;80.40;34.50;;;;;;;-5.50;71.96;99776.40;126221;1286;107492;-73
2022/12/14 09:17:01;;;;;;;87.70;37.50;;;;;;;-5.50;72.12;99768.25;126997;1301;99332;-71
2022/12/14 09:20:05;;;;;;;80.20;36.90;;;;;;;-5.43;72.24;99769.37;126187;1283;107986;-73
2022/12/14 09:23:08;;;;;;;82.60;34.00;;;;;;;-5.37;72.26;99766.33;126360;1302;107555;-73
2022/12/14 09:26:13;;;;;;;81.50;32.60;;;;;;;-5.32;72.26;99759.69;126296;1287;99328;-73
2022/12/14 09:29:17;;;;;;;70.60;32.80;;;;;;;-5.27;72.23;99757.07;126232;1307;107469;-74
2022/12/14 09:32:20;;;;;;;69.00;32.40;;;;;;;-5.20;72.35;99754.52;126388;1283;107514;-73
2022/12/14 09:35:23;;;;;;;68.10;31.50;;;;;;;-5.16;72.23;99751.04;126287;1277;99423;-75
2022/12/14 09:38:25;;;;;;;67.20;30.40;;;;;;;-5.17;72.27;99751.76;126240;1290;99362;-74
2022/12/14 09:41:40;;;;;;;67.50;31.20;;;;;;;-5.15;72.28;99750.98;126329;1285;99574;-74
2022/12/14 09:44:56;;;;;;;75.10;33.20;;;;;;;-5.11;72.18;99745.96;126261;1307;107552;-73
2022/12/14 09:48:07;;;;;;;67.70;31.50;;;;;;;-5.10;72.37;99743.67;126245;1283;107278;-74
2022/12/14 09:51:14;;;;;;;69.20;31.60;;;;;;;-5.08;72.21;99738.55;126279;1284;107644;-73
2022/12/14 09:54:28;;;;;;;73.80;32.40;;;;;;;-5.05;72.32;99738.27;126408;1298;108752;-74
2022/12/14 09:57:36;;;;;;;66.00;29.60;;;;;;;-4.98;72.41;99733.07;126278;1297;107654;-74
2022/12/14 10:00:43;;;;;;;58.50;28.10;;;;;;;-4.90;72.50;99723.37;126326;1284;107187;-72
2022/12/14 10:03:56;;;;;;;71.20;33.30;;;;;;;-4.81;72.53;99716.56;126305;1290;107532;-73
2022/12/14 10:07:07;;;;;;;64.90;30.30;;;;;;;-4.76;72.35;99710.94;126232;1284;106588;-73
2022/12/14 10:10:21;;;;;;;61.60;27.90;;;;;;;-4.67;72.45;99707.74;126243;1292;107546;-73
2022/12/14 10:13:39;;;;;;;64.30;26.40;;;;;;;-4.53;72.42;99709.38;126268;1281;107595;-73
2022/12/14 10:16:50;;;;;;;67.10;29.50;;;;;;;-4.42;72.39;99704.36;126378;1294;107384;-73
2022/12/14 10:19:55;;;;;;;69.20;31.20;;;;;;;-4.30;72.27;99705.19;126344;1284;107476;-73
2022/12/14 10:23:00;;;;;;;65.90;30.70;;;;;;;-4.22;72.50;99698.38;126266;1290;107441;-73
2022/12/14 10:26:10;;;;;;;61.20;28.60;;;;;;;-4.17;72.25;99691.20;126317;1292;106776;-73
2022/12/14 10:29:18;;;;;;;65.70;29.40;;;;;;;-4.11;72.43;99684.48;126349;1294;107484;-74
2022/12/14 10:32:24;;;;;;;66.20;31.10;;;;;;;-4.05;72.40;99681.41;126355;1284;107460;-73
2022/12/14 10:35:37;;;;;;;64.20;30.50;;;;;;;-4.06;72.27;99677.44;126285;1284;107269;-74
2022/12/14 10:38:46;;;;;;;65.20;30.40;;;;;;;-4.07;72.37;99670.06;126297;1294;108582;-73
2022/12/14 10:41:57;;;;;;;65.80;30.40;;;;;;;-4.06;72.61;99664.27;126179;1294;107374;-74
2022/12/14 10:45:13;;;;;;;63.70;30.90;;;;;;;-4.00;72.56;99660.13;126254;1289;107826;-74
2022/12/14 10:48:36;;;;;;;63.70;29.90;;;;;;;-4.00;72.26;99651.47;126342;1294;107451;-74
2022/12/14 10:51:42;;;;;;;62.20;28.60;;;;;;;-3.98;72.59;99642.85;126359;1286;107593;-75
2022/12/14 10:54:49;;;;;;;59.80;28.60;;;;;;;-3.98;72.61;99636.38;126388;1296;106612;-75
2022/12/14 10:57:52;;;;;;;64.40;29.90;;;;;;;-3.99;72.51;99637.14;126272;1295;107756;-74
2022/12/14 11:00:55;;;;;;;59.20;28.70;;;;;;;-3.99;72.61;99626.73;126323;1289;99574;-75
2022/12/14 11:03:58;;;;;;;59.80;27.90;;;;;;;-3.98;72.56;99624.41;126356;1298;99350;-74
2022/12/14 11:07:02;;;;;;;59.70;27.90;;;;;;;-3.91;72.87;99622.89;126290;1296;99372;-72
2022/12/14 11:10:16;;;;;;;69.20;31.00;;;;;;;-3.88;72.64;99619.05;126295;1285;107483;-74
2022/12/14 11:13:20;;;;;;;74.60;31.50;;;;;;;-3.88;72.35;99611.42;126324;1284;107535;-72
2022/12/14 11:16:33;;;;;;;60.80;28.20;;;;;;;-3.89;72.70;99606.80;126305;1295;107266;-75
2022/12/14 11:19:36;;;;;;;63.60;29.30;;;;;;;-3.87;72.65;99600.77;126403;1290;107395;-74
2022/12/14 11:22:44;;;;;;;66.00;31.50;;;;;;;-3.87;72.52;99591.40;126394;1290;100390;-74
2022/12/14 11:25:50;;;;;;;71.50;33.90;;;;;;;-3.89;72.74;99589.23;126724;1290;107639;-73
2022/12/14 11:28:55;;;;;;;62.00;29.20;;;;;;;-3.87;72.61;99587.91;126323;1284;108640;-74
2022/12/14 11:31:57;;;;;;;61.50;31.30;;;;;;;-3.81;72.75;99589.87;126974;1303;106798;-74
2022/12/14 11:35:00;;;;;;;69.90;30.90;;;;;;;-3.78;72.60;99582.25;127069;1291;99679;-72
2022/12/14 11:38:04;;;;;;;67.30;30.40;;;;;;;-3.76;72.63;99575.35;126296;1283;100497;-74
2022/12/14 11:41:07;;;;;;;76.50;31.50;;;;;;;-3.72;72.44;99573.27;126400;1295;107599;-73
2022/12/14 11:44:23;;;;;;;63.60;28.60;;;;;;;-3.72;72.71;99568.59;126258;1284;99544;-72
2022/12/14 11:47:26;;;;;;;54.60;25.70;;;;;;;-3.72;72.37;99563.48;126352;1289;106538;-73
2022/12/14 11:50:29;;;;;;;51.50;23.00;;;;;;;-3.73;72.64;99564.77;126272;1287;99387;-72
2022/12/14 11:53:31;;;;;;;49.70;24.20;;;;;;;-3.71;72.83;99564.33;126324;1296;99439;-73
2022/12/14 11:56:36;;;;;;;74.20;32.60;;;;;;;-3.70;72.78;99558.90;126267;1284;99348;-74
2022/12/14 11:59:44;;;;;;;79.20;32.80;;;;;;;-3.68;72.67;99556.16;126367;1290;106087;-73
2022/12/14 12:02:58;;;;;;;66.70;27.50;;;;;;;-3.67;72.48;99551.96;126374;1290;107740;-70
2022/12/14 12:06:03;;;;;;;56.80;25.10;;;;;;;-3.69;72.54;99555.52;126275;1293;107585;-73
2022/12/14 12:09:26;;;;;;;77.40;27.80;;;;;;;-3.72;72.49;99555.88;126379;1289;108689;-72
2022/12/14 12:12:29;;;;;;;56.70;23.60;;;;;;;-3.72;72.49;99552.39;126297;1294;108070;-74
2022/12/14 12:15:37;;;;;;;54.30;24.50;;;;;;;-3.72;72.49;99540.20;126295;1295;107991;-76
2022/12/14 12:18:51;;;;;;;66.60;30.40;;;;;;;-3.73;72.24;99538.91;126342;1295;106717;-74
2022/12/14 12:21:55;;;;;;;67.00;28.90;;;;;;;-3.76;72.42;99537.63;126417;1306;109280;-73
2022/12/14 12:25:04;;;;;;;56.00;24.40;;;;;;;-3.72;72.57;99534.31;126396;1296;107432;-72
2022/12/14 12:28:17;;;;;;;42.80;21.60;;;;;;;-3.71;72.51;99525.73;126379;1296;107615;-75
2022/12/14 12:31:28;;;;;;;47.40;21.80;;;;;;;-3.68;72.31;99518.27;126422;1296;107487;-75
2022/12/14 12:34:36;;;;;;;47.10;21.80;;;;;;;-3.64;72.52;99512.86;126293;1301;107752;-73
2022/12/14 12:37:43;;;;;;;60.20;25.40;;;;;;;-3.56;72.53;99508.26;126278;1294;108819;-73
2022/12/14 12:40:56;;;;;;;61.70;24.90;;;;;;;-3.47;72.46;99503.95;126238;1299;107469;-75
2022/12/14 12:44:11;;;;;;;61.70;25.20;;;;;;;-3.40;72.33;99504.48;126224;1293;107553;-73
2022/12/14 12:47:18;;;;;;;52.50;24.30;;;;;;;-3.39;72.19;99499.34;126294;1289;107529;-74
2022/12/14 12:50:26;;;;;;;52.60;23.00;;;;;;;-3.36;72.02;99497.95;126305;1297;106591;-75
2022/12/14 12:53:34;;;;;;;61.70;26.20;;;;;;;-3.38;71.91;99491.48;126247;1290;108782;-75
2022/12/14 12:56:44;;;;;;;52.80;23.50;;;;;;;-3.41;72.24;99490.92;126357;1286;107463;-74
2022/12/14 12:59:51;;;;;;;58.20;25.30;;;;;;;-3.45;71.85;99488.40;126424;1290;107496;-74
2022/12/14 13:02:58;;;;;;;45.80;22.20;;;;;;;-3.52;72.21;99482.83;126388;1289;107637;-75
2022/12/14 13:06:12;;;;;;;47.20;23.20;;;;;;;-3.57;72.05;99480.11;126382;1293;106600;-75
2022/12/14 13:09:26;;;;;;;52.90;23.80;;;;;;;-3.60;72.29;99478.41;126510;1295;107423;-74
2022/12/14 13:12:33;;;;;;;45.50;21.90;;;;;;;-3.62;72.20;99478.68;126415;1286;107531;-75
2022/12/14 13:15:41;;;;;;;49.50;23.30;;;;;;;-3.65;72.13;99475.02;126264;1286;107440;-74
2022/12/14 13:18:49;;;;;;;52.90;23.60;;;;;;;-3.68;72.27;99477.11;126373;1293;107741;-75
2022/12/14 13:21:52;;;;;;;51.40;22.70;;;;;;;-3.73;72.13;99470.58;126284;1284;107426;-74
2022/12/14 13:24:58;;;;;;;60.50;26.70;;;;;;;-3.81;72.26;99464.21;125437;1293;1273257;-74
2022/12/14 13:28:15;;;;;;;56.10;24.10;;;;;;;-3.83;72.28;99459.65;126383;1297;107760;-76
2022/12/14 13:31:30;;;;;;;53.70;22.70;;;;;;;-3.86;72.24;99455.62;126516;1283;107586;-76
2022/12/14 13:34:48;;;;;;;64.70;27.80;;;;;;;-3.86;72.37;99451.99;126334;1284;108050;-75
2022/12/14 13:38:09;;;;;;;66.10;30.20;;;;;;;-3.89;72.21;99449.88;126329;1290;107448;-75
2022/12/14 13:41:25;;;;;;;75.60;33.20;;;;;;;-3.95;72.25;99453.65;126235;1284;107625;-74
2022/12/14 13:44:48;;;;;;;72.20;29.30;;;;;;;-4.02;72.29;99447.61;126411;1294;107531;-76
2022/12/14 13:47:54;;;;;;;58.50;24.60;;;;;;;-4.09;72.44;99443.30;126260;1283;107601;-74
2022/12/14 13:50:59;;;;;;;61.50;25.50;;;;;;;-4.16;72.25;99438.27;126246;1301;107674;-75
2022/12/14 13:54:05;;;;;;;66.10;28.10;;;;;;;-4.24;72.34;99430.85;126351;1285;107620;-74
2022/12/14 13:57:10;;;;;;;63.30;26.40;;;;;;;-4.31;72.28;99426.20;126209;1301;107596;-74
2022/12/14 14:00:52;;;;;;;54.20;23.90;;;;;;;-4.41;72.08;99426.34;126273;1294;107698;-75
2022/12/14 14:04:17;;;;;;;51.90;22.40;;;;;;;-4.50;72.43;99422.84;126296;1303;108782;-74
2022/12/14 14:07:48;;;;;;;50.50;22.90;;;;;;;-4.61;72.26;99418.72;126294;1294;107563;-76
2022/12/14 14:10:51;;;;;;;52.10;22.90;;;;;;;-4.69;72.38;99413.56;126315;1284;106839;-75
2022/12/14 14:14:24;;;;;;;45.60;21.90;;;;;;;-4.74;72.36;99420.23;126301;1285;100492;-73
2022/12/14 14:17:36;;;;;;;53.00;23.10;;;;;;;-4.82;72.27;99420.11;126260;1285;107568;-76
2022/12/14 14:20:40;;;;;;;42.80;19.60;;;;;;;-4.90;72.30;99415.45;126345;1292;107476;-76